Milan, KS (67105)

12:14 PM CST on December 27, 2014 (GMT -0600)
KanOkla | Change Station
CLOSE
Current Station
Personal Weather Station
Location: Caldwell, KS
Elevation: 1168 ft
Nearby Weather Stations

Elev 1168 ft 37.03 °N, 97.61 °W | Updated 4 minutes ago

Partly Cloudy
Partly Cloudy
33.1 °F
Feels Like 27 °F
N
7.0
Wind Variable Wind from North
Gusts 7.0 mph

Today
High -- | Low -- °F
--% Chance of Precip.
Yesterday
High -- | Low -- °F
Precip. -- in
7:43 AM 5:20 PM
Waxing Crescent, 38% visible
Pressure 30.35 in
Visibility 10.0 miles
Clouds Few 3000 ft
Few 10000 ft
Scattered Clouds 18000 ft
Scattered Clouds 25000 ft
Windchill 27 °F
Dew Point 20 °F
Humidity 57%
Rainfall 0.00 in
Snow Depth Not available.
UV 2 out of 12
Pollen .10 out of 12
Air Quality Not available.
Flu Activity Not available.
METAR KICT 271753Z 35010KT 10SM FEW030 FEW100 SCT180 SCT250 00/M09 A3032 RMK AO2 SLP278 T00001094 10006 21028 50007

More Conditions Fewer Conditions

Pressure 30.35 in
Visibility 10.0 miles
Clouds Few 3000 ft
Few 10000 ft
Scattered Clouds 18000 ft
Scattered Clouds 25000 ft
Windchill 27 °F
Dew Point 20 °F
Humidity 57%
Rainfall 0.00 in
Snow Depth Not available.
UV 2 out of 12
Pollen .10 out of 12
Air Quality Not available.
Flu Activity Not available.
METAR KICT 271753Z 35010KT 10SM FEW030 FEW100 SCT180 SCT250 00/M09 A3032 RMK AO2 SLP278 T00001094 10006 21028 50007

More Conditions Fewer Conditions

10-Day Weather Forecast

Almanac

Astronomy

Dec. 27, 2014 Rise Set
Actual Time
Civil Twilight
Nautical Twilight
Astronomical Twilight
Moon
Length of Visible Light
Length of Day
Tomorrow will be .
, % of the Moon is Illuminated

Today's Extremes

State Highs State Lows

Community

WunderPhotos

Upload Photos

1,780,981 photos uploaded!

WunderBlogs® & News

Nearby

Air Quality

  Air Quality AQ Index Pollutant
Not available.

Snow Depth

Station Depth Elevation

Earthquake Activity

City Distance Mag. Time & Date
Minimum magnitude displayed is 2.5.

Coastal Water Temperatures

Place Temperature

Nearby Weather Stations